Aérodrome :
LOGIN :

S'inscrire | Disclaimer

   EN    FR    IT 

 










Légende :    VFR   VFR Marginal   IFR   IFR Intensif   IFR Très Intensif
Visi : 
Plafond : 
>= 8 km
>= 3000ft
5 à 8 km
1000 à 3000 ft
1500m à 5 km
500 à 1000 ft
800 à 1500m
200 à 500 ft
< 800m
< 200 ft
Symboles :   Orages  Brouillard  Fortes neiges  Fortes précipitations  Vent > 20 kt
SIGMETs :   Divers  Orages  Givrage  Turbulence  Onde Orograph.  Cendres Volcan.






- Altitude de l'aérodrome : 609 ft
- Code IATA : BJZ


LEBZ - Badajoz

DERNIER METAR :
  • 171500Z 29008KT 260V320 9999 FEW019 BKN023 17/13 Q1029

METARs EXPIRÉS :
  • 171400Z 28006KT 240V310 9999 FEW012 BKN018 17/14 Q1029
  • 171347Z 28007KT 250V310 9999 SCT012 BKN017 16/14 Q1029
  • 171313Z 28008KT 230V310 9999 BKN011 16/13 Q1029
  • 171300Z 28007KT 250V310 9999 BKN009 OVC013 16/13 Q1029
  • 171233Z 29005KT 260V330 9999 OVC009 16/13 Q1029

TAF AMD TAF LEBZ
Valide du 17 à 13h jusqu'au 18 à 12h UTC


171312Z 1713/1812 24004KT 9000 SCT015 BKN030 TX18/1715Z TN05/1807Z
TEMPO 1713/1718 BKN010
TEMPO 1800/1810 3000 BR BKN010
PROB40
TEMPO 1804/1809 0500 FG VV001



MET'MAP, la Météo Aéronautique d'un coup d'oeil ! - Copyright ORBIFLY Décembre 2007 - Disclaimer

ORBIFLY MET'MAP TEAM :

Programmation & Développement : Alexandra Zaïnal
Sur une idée originale de : Baudouin d'Aumeries
Assistance à la programmation : Marc-Olivier Méhu
Soutien technique & logistique : Manuel Goepfert

Contact : metmap@orbifly.com




SOURCES & CREDITS :

   NOAA